Time;durP1;ratioP1;P1;durP2;ratioP2;P2;SDS_P1;SDS_P2;PMS_P1;PMS_P2;Temp;Humidity;BMP_temperature;BMP_pressure;BME280_temperature;BME280_humidity;BME280_pressure;Samples;Min_cycle;Max_cycle;Signal;HPM_P1;HPM_P2
2023/01/29 00:00:33;;;;;;;0.88;0.88;;;2.60;99.90;;;2.18;66.00;101980.22;4895863;29;20269;-67
2023/01/29 00:03:00;;;;;;;1.95;1.67;;;2.50;99.90;;;2.16;65.58;101981.97;4894143;29;20210;-69
2023/01/29 00:05:27;;;;;;;2.85;2.25;;;2.50;99.90;;;2.16;65.58;101989.69;4897803;29;20199;-67
2023/01/29 00:07:55;;;;;;;1.98;1.83;;;2.40;99.90;;;2.15;65.84;101982.88;4895789;29;20206;-69
2023/01/29 00:10:24;;;;;;;1.00;1.00;;;2.40;99.90;;;2.17;66.03;101983.69;4895001;29;20698;-67
2023/01/29 00:12:51;;;;;;;1.80;1.70;;;2.50;99.90;;;2.16;65.96;101977.69;4896078;29;20210;-67
2023/01/29 00:15:19;;;;;;;2.78;1.80;;;2.50;99.90;;;2.15;66.04;101980.28;4895444;29;20210;-69
2023/01/29 00:17:46;;;;;;;2.10;1.95;;;2.40;99.90;;;2.11;66.28;101973.47;4898487;29;20206;-69
2023/01/29 00:20:13;;;;;;;2.10;1.90;;;2.40;99.90;;;2.11;66.37;101966.59;4895791;29;20236;-67
2023/01/29 00:22:40;;;;;;;2.00;1.80;;;2.40;99.90;;;2.07;66.39;101964.94;4895412;29;20223;-68
2023/01/29 00:25:08;;;;;;;1.83;1.00;;;2.40;99.90;;;2.08;65.39;101971.81;4896674;29;20216;-68
2023/01/29 00:27:35;;;;;;;4.47;3.08;;;2.40;99.90;;;2.06;65.63;101972.72;4906418;29;20210;-69
2023/01/29 00:30:10;;;;;;;3.38;2.65;;;2.40;99.90;;;2.03;66.33;101976.19;4894327;29;20198;-67
2023/01/29 00:32:40;;;;;;;3.08;2.25;;;2.40;99.90;;;2.04;66.84;101977.03;4902611;29;20201;-67
2023/01/29 00:35:08;;;;;;;2.90;2.30;;;2.30;99.90;;;2.04;66.91;101974.47;4899132;29;20679;-67
2023/01/29 00:37:35;;;;;;;2.63;2.45;;;2.30;99.90;;;2.04;66.96;101982.19;4895047;29;20300;-68
2023/01/29 00:40:04;;;;;;;2.33;1.80;;;2.40;99.90;;;2.04;66.60;101977.03;4894300;29;20582;-69
2023/01/29 00:45:16;;;;;;;2.13;1.73;;;2.40;99.90;;;2.01;66.66;101982.22;4904425;29;20203;-68
2023/01/29 00:47:43;;;;;;;2.00;1.90;;;2.30;99.90;;;2.01;66.26;101977.06;4898882;29;20199;-69
2023/01/29 00:50:11;;;;;;;1.50;1.05;;;2.30;99.90;;;2.00;66.30;101978.78;4908325;29;20689;-67
2023/01/29 00:52:42;;;;;;;2.80;2.33;;;2.40;99.90;;;1.97;66.49;101985.72;4914143;29;20289;-67
2023/01/29 00:55:10;;;;;;;3.58;2.53;;;2.30;99.90;;;1.97;66.22;101988.28;4900717;29;20672;-69
2023/01/29 00:57:37;;;;;;;4.20;2.80;;;2.30;99.90;;;2.01;66.77;101997.66;4895261;29;20229;-71
2023/01/29 01:00:09;;;;;;;2.55;2.28;;;2.30;99.90;;;2.00;66.74;101998.56;4884394;29;20494;-67
2023/01/29 01:05:23;;;;;;;1.58;1.48;;;2.30;99.90;;;2.06;66.25;101999.31;4894032;29;20258;-68
2023/01/29 01:07:53;;;;;;;1.63;1.33;;;2.40;99.90;;;2.05;65.97;101994.16;4891439;29;20198;-68
2023/01/29 01:10:31;;;;;;;1.90;1.75;;;2.40;99.90;;;2.05;65.57;101999.31;4893747;29;20222;-67
2023/01/29 01:13:03;;;;;;;6.07;3.80;;;2.40;99.90;;;2.03;66.52;102003.63;4895557;29;20249;-67
2023/01/29 01:15:36;;;;;;;3.47;2.50;;;2.30;99.90;;;2.02;66.52;101995.06;4894351;29;20207;-67
2023/01/29 01:18:04;;;;;;;2.50;2.30;;;2.30;99.90;;;2.02;66.92;101994.22;4895667;29;20672;-71
2023/01/29 01:20:33;;;;;;;2.55;1.95;;;2.30;99.90;;;2.01;67.07;101998.53;4894799;29;20234;-68
2023/01/29 01:23:00;;;;;;;3.15;2.85;;;2.30;99.90;;;2.02;66.19;101994.22;4882080;29;20258;-69
2023/01/29 01:25:27;;;;;;;2.08;1.98;;;2.30;99.90;;;2.01;65.87;101983.06;4894991;29;20199;-66
2023/01/29 01:27:56;;;;;;;4.05;3.00;;;2.30;99.90;;;2.03;65.96;101985.63;4895315;29;20203;-67
2023/01/29 01:30:24;;;;;;;4.35;3.88;;;2.40;99.90;;;2.04;66.54;101989.91;4897958;29;20222;-66
2023/01/29 01:32:51;;;;;;;2.40;2.17;;;2.40;99.90;;;2.05;66.82;101994.16;4895412;29;20210;-67
2023/01/29 01:35:18;;;;;;;3.47;2.40;;;2.40;99.90;;;2.06;66.89;101976.13;4894897;29;20214;-68
2023/01/29 01:37:45;;;;;;;1.80;1.27;;;2.40;99.90;;;2.08;66.90;101984.69;4895999;29;20578;-69
2023/01/29 01:40:16;;;;;;;4.97;3.30;;;2.40;99.90;;;2.08;66.39;101979.53;4880615;29;20616;-67
2023/01/29 01:42:48;;;;;;;1.35;1.23;;;2.40;99.90;;;2.10;65.51;101974.34;4886303;29;20229;-68
2023/01/29 01:45:36;;;;;;;3.35;3.05;;;2.40;99.90;;;2.06;65.79;101985.59;4913255;29;20198;-67
2023/01/29 01:48:24;;;;;;;2.80;2.20;;;2.40;99.90;;;2.06;66.40;101983.00;4906634;29;20294;-67
2023/01/29 01:51:03;;;;;;;3.30;2.65;;;2.40;99.90;;;2.07;66.20;101982.13;4877252;29;20226;-68
2023/01/29 01:53:42;;;;;;;2.90;2.70;;;2.40;99.90;;;2.06;66.33;101983.88;4894276;29;20217;-68
2023/01/29 01:56:15;;;;;;;2.33;2.00;;;2.40;99.90;;;2.08;66.04;101976.97;4897837;29;20671;-67
2023/01/29 01:58:49;;;;;;;2.42;2.22;;;2.40;99.90;;;2.09;65.35;101967.50;4899674;29;20211;-69
2023/01/29 02:01:20;;;;;;;3.53;2.30;;;2.40;99.90;;;2.09;65.32;101975.22;4893001;29;20711;-67
2023/01/29 02:09:35;;;;;;;3.00;2.25;;;2.40;99.90;;;2.04;65.73;101964.16;4898517;29;20221;-68
2023/01/29 02:12:11;;;;;;;2.92;2.42;;;2.40;99.90;;;2.05;65.84;101958.13;4893273;29;20241;-71
2023/01/29 02:14:40;;;;;;;1.83;1.70;;;2.40;99.90;;;2.06;65.53;101963.28;4904213;29;20640;-69
2023/01/29 02:17:12;;;;;;;2.60;1.95;;;2.40;99.90;;;2.04;65.46;101959.00;4892907;29;20202;-67
2023/01/29 02:20:19;;;;;;;2.75;1.98;;;2.40;99.90;;;2.00;65.80;101959.94;4885428;29;20261;-68
2023/01/29 02:23:32;;;;;;;2.35;2.00;;;2.30;99.90;;;1.97;65.70;101952.25;4884987;29;20218;-69
2023/01/29 02:26:33;;;;;;;3.40;3.10;;;2.30;99.90;;;1.96;65.76;101948.81;4897965;29;20578;-70
2023/01/29 02:29:29;;;;;;;3.28;2.97;;;2.30;99.90;;;1.94;65.71;101955.72;4897146;29;20569;-67
2023/01/29 02:32:07;;;;;;;1.23;1.13;;;2.30;99.90;;;1.93;64.95;101937.72;4879891;29;20232;-67
2023/01/29 02:38:00;;;;;;;2.97;2.75;;;2.20;99.90;;;1.89;65.30;101943.81;4882889;29;20217;-67
2023/01/29 02:40:45;;;;;;;3.33;2.67;;;2.20;99.90;;;1.84;66.05;101943.00;4888665;29;20918;-64
2023/01/29 02:43:46;;;;;;;3.13;1.88;;;2.10;99.90;;;1.84;66.30;101937.88;4899887;29;20602;-66
2023/01/29 02:47:13;;;;;;;1.33;1.33;;;2.10;99.90;;;1.73;65.96;101937.19;4897250;29;20317;-66
2023/01/29 02:50:05;;;;;;;1.92;1.75;;;2.10;99.90;;;1.58;66.67;101933.97;4894327;29;20255;-66
2023/01/29 02:52:43;;;;;;;3.33;1.58;;;1.90;99.90;;;1.50;66.98;101937.53;4886399;29;20683;-66
2023/01/29 02:55:18;;;;;;;3.03;2.83;;;1.80;99.90;;;1.42;nan;101929.94;4901933;29;20258;-66
2023/01/29 02:57:48;;;;;;;2.05;1.60;;;1.80;99.90;;;1.42;nan;101929.94;4895527;29;22057;-66
2023/01/29 03:00:27;;;;;;;1.45;1.38;;;1.70;99.90;;;1.35;nan;101933.44;4891072;29;20248;-66
2023/01/29 03:03:19;;;;;;;3.08;2.03;;;1.70;99.90;;;1.31;nan;101934.34;4880217;29;20230;-66
2023/01/29 03:06:06;;;;;;;1.60;1.55;;;1.60;99.90;;;1.34;nan;101926.59;4895224;29;20214;-66
2023/01/29 03:08:44;;;;;;;1.00;1.00;;;1.60;99.90;;;1.27;nan;101935.28;4904491;29;20210;-68
2023/01/29 03:11:14;;;;;;;1.70;1.00;;;1.60;99.90;;;1.28;nan;101934.38;4882303;29;20254;-66
2023/01/29 03:13:56;;;;;;;1.30;1.25;;;1.60;99.90;;;1.30;nan;101942.09;4907497;29;20219;-64
2023/01/29 03:16:40;;;;;;;4.25;3.03;;;1.60;99.90;;;1.28;nan;101946.38;4880936;29;20266;-65
2023/01/29 03:19:17;;;;;;;2.40;2.20;;;1.60;99.90;;;1.28;nan;101946.38;4888943;29;20579;-65
2023/01/29 03:21:54;;;;;;;3.50;2.78;;;1.60;99.90;;;1.23;nan;101941.34;4892492;29;20231;-67
2023/01/29 03:32:53;;;;;;;2.60;2.20;;;1.60;99.90;;;1.26;nan;101958.41;4909714;29;20675;-66
2023/01/29 03:35:35;;;;;;;2.95;2.55;;;1.60;99.90;;;1.26;nan;101956.69;4898484;29;20210;-65
2023/01/29 03:38:05;;;;;;;3.72;3.03;;;1.60;99.90;;;1.26;nan;101956.69;4903369;29;20222;-65
2023/01/29 03:40:59;;;;;;;6.65;3.30;;;1.60;99.90;;;1.25;nan;101954.16;4894092;29;20239;-66
2023/01/29 03:43:47;;;;;;;6.13;3.70;;;1.60;99.90;;;1.24;nan;101949.88;4892183;29;20229;-66
2023/01/29 03:46:37;;;;;;;4.32;2.97;;;1.60;99.90;;;1.26;nan;101959.28;4896048;29;20214;-66
2023/01/29 03:49:30;;;;;;;4.88;2.78;;;1.60;99.90;;;1.29;nan;101959.25;4894657;29;20612;-66
2023/01/29 03:52:02;;;;;;;1.45;1.08;;;1.60;99.90;;;1.29;nan;101959.25;4910924;29;20223;-66
2023/01/29 03:54:56;;;;;;;1.65;1.55;;;1.60;99.90;;;1.35;nan;101969.44;4876859;29;20210;-66
2023/01/29 03:57:58;;;;;;;3.35;2.60;;;1.70;99.90;;;1.38;nan;101979.69;4895071;29;20210;-66
2023/01/29 04:00:34;;;;;;;4.35;2.92;;;1.70;99.90;;;1.37;nan;101972.84;4876892;29;20784;-66
2023/01/29 04:03:19;;;;;;;5.15;4.30;;;1.70;99.90;;;1.39;nan;101986.53;4882093;29;20266;-66
2023/01/29 04:06:16;;;;;;;4.30;3.75;;;1.70;99.90;;;1.35;nan;101996.88;4889664;29;20576;-66
2023/01/29 04:09:22;;;;;;;6.97;4.00;;;1.70;99.90;;;1.33;nan;101991.75;4894206;29;20211;-66
2023/01/29 04:11:58;;;;;;;2.70;2.50;;;1.70;99.90;;;1.39;nan;101976.25;4889762;29;20222;-66
2023/01/29 04:14:25;;;;;;;3.38;2.55;;;1.70;99.90;;;1.41;nan;101968.50;4883366;29;20207;-66
2023/01/29 04:16:56;;;;;;;3.53;2.25;;;1.70;99.90;;;1.44;nan;101969.34;4877427;29;20221;-66
2023/01/29 04:19:24;;;;;;;3.70;1.45;;;1.80;99.90;;;1.49;nan;101969.28;4894133;29;20218;-66
2023/01/29 04:22:03;;;;;;;1.95;1.75;;;1.80;99.90;;;1.53;nan;101969.19;4897945;29;20234;-66
2023/01/29 04:24:30;;;;;;;3.30;2.45;;;1.80;99.90;;;1.53;nan;101956.31;4918052;29;20213;-66
2023/01/29 04:27:27;;;;;;;4.03;2.42;;;1.90;99.90;;;1.54;nan;101960.63;4896286;29;20211;-66
2023/01/29 04:30:05;;;;;;;0.50;0.50;;;1.90;99.90;;;1.40;nan;101965.09;4895244;29;20214;-66
2023/01/29 04:33:13;;;;;;;4.43;3.38;;;1.80;99.90;;;1.40;nan;101970.25;4891277;29;20273;-66
2023/01/29 04:36:23;;;;;;;4.93;3.25;;;1.70;99.90;;;1.44;nan;101973.63;4910922;29;20222;-66
2023/01/29 04:38:56;;;;;;;3.67;2.35;;;1.70;99.90;;;1.43;nan;101969.31;4899537;29;20211;-66
2023/01/29 04:41:32;;;;;;;3.25;2.95;;;1.70;99.90;;;1.43;nan;101967.63;4896272;29;20332;-66
2023/01/29 04:44:43;;;;;;;3.85;2.25;;;1.70;99.90;;;1.46;nan;101951.31;4885799;29;20241;-66
2023/01/29 04:47:40;;;;;;;4.28;3.30;;;1.70;99.90;;;1.50;nan;101938.38;4879131;29;20211;-66
2023/01/29 04:50:37;;;;;;;0.38;0.38;;;1.80;99.90;;;1.57;nan;101928.84;4895914;29;20678;-66
2023/01/29 04:53:20;;;;;;;1.23;0.88;;;1.80;99.90;;;1.53;nan;101922.88;4879819;29;20209;-66
2023/01/29 04:56:26;;;;;;;1.00;1.00;;;1.90;99.90;;;1.44;nan;101925.59;4876476;29;20215;-66
2023/01/29 04:59:07;;;;;;;1.10;1.10;;;1.80;99.90;;;1.41;nan;101935.94;4856132;29;20638;-66
2023/01/29 05:01:35;;;;;;;2.28;1.88;;;1.80;99.90;;;1.40;nan;101939.38;4874672;29;20298;-66
2023/01/29 05:04:08;;;;;;;1.27;1.17;;;1.70;99.90;;;1.35;nan;101923.16;4881115;29;20226;-66
2023/01/29 05:06:37;;;;;;;0.50;0.50;;;1.70;99.90;;;1.22;nan;101906.19;4882605;29;20627;-66
2023/01/29 05:09:04;;;;;;;1.88;1.45;;;1.50;99.90;;;1.13;nan;101916.59;4895175;29;20226;-66
2023/01/29 05:11:35;;;;;;;4.35;1.80;;;1.50;99.90;;;1.10;nan;101926.06;4886868;29;20214;-66
2023/01/29 05:14:06;;;;;;;3.53;2.80;;;1.40;99.90;;;1.10;nan;101934.63;4891181;29;20261;-66
2023/01/29 05:16:41;;;;;;;3.80;2.72;;;1.40;99.90;;;1.10;nan;101934.63;4880900;29;20355;-66
2023/01/29 05:19:13;;;;;;;5.20;3.08;;;1.40;99.90;;;1.11;nan;101944.03;4875399;29;20217;-66
2023/01/29 05:21:45;;;;;;;5.00;2.72;;;1.40;99.90;;;1.11;nan;101944.03;4864552;29;20226;-66
2023/01/29 05:24:20;;;;;;;4.22;2.70;;;1.40;99.90;;;1.10;nan;101944.91;4881787;29;20233;-66
2023/01/29 05:29:36;;;;;;;7.43;3.67;;;1.40;99.90;;;1.13;nan;101959.47;4905091;29;20206;-66
2023/01/29 05:32:03;;;;;;;4.93;3.20;;;1.50;99.90;;;1.15;nan;101963.69;4915099;29;20222;-66
2023/01/29 05:34:30;;;;;;;4.72;3.30;;;1.50;99.90;;;1.19;nan;101967.09;4907355;29;20215;-66
2023/01/29 05:36:57;;;;;;;4.43;3.28;;;1.50;99.90;;;1.22;nan;101964.47;4898639;29;20719;-66
2023/01/29 05:39:24;;;;;;;5.35;3.60;;;1.50;99.90;;;1.26;nan;101961.84;4897290;29;20603;-66
2023/01/29 05:41:51;;;;;;;7.63;3.92;;;1.60;99.90;;;1.30;nan;101954.97;4899659;29;20255;-62
2023/01/29 05:44:19;;;;;;;4.28;3.08;;;1.60;99.90;;;1.35;nan;101954.00;4897762;29;20234;-66
2023/01/29 05:46:46;;;;;;;4.65;3.30;;;1.70;99.90;;;1.37;nan;101956.56;4898184;29;20319;-66
2023/01/29 05:49:13;;;;;;;5.90;3.70;;;1.70;99.90;;;1.35;nan;101951.44;4897189;29;20750;-66
2023/01/29 05:51:40;;;;;;;2.97;2.03;;;1.70;99.90;;;1.36;nan;101953.13;4897714;29;20291;-66
2023/01/29 05:54:07;;;;;;;1.08;1.05;;;1.70;99.90;;;1.42;nan;101945.34;4898644;29;20746;-66
2023/01/29 05:56:33;;;;;;;1.52;1.42;;;1.80;99.90;;;1.47;nan;101945.25;4898996;29;20211;-66
2023/01/29 05:59:00;;;;;;;1.95;1.85;;;1.80;99.90;;;1.46;nan;101944.44;4897584;29;20214;-66
2023/01/29 06:01:27;;;;;;;1.45;1.35;;;1.80;99.90;;;1.50;nan;101947.81;4898712;29;20285;-66
2023/01/29 06:03:54;;;;;;;1.05;0.95;;;1.80;99.90;;;1.51;nan;101940.06;4898155;29;20606;-66
2023/01/29 06:06:21;;;;;;;1.30;1.15;;;1.80;99.90;;;1.51;nan;101942.63;4894199;29;20214;-66
2023/01/29 06:08:48;;;;;;;5.97;3.50;;;1.90;99.90;;;1.50;nan;101942.66;4898985;29;20217;-66
2023/01/29 06:11:17;;;;;;;4.10;3.00;;;1.80;99.90;;;1.49;nan;101948.69;4877969;29;20227;-66
2023/01/29 06:13:45;;;;;;;5.13;3.55;;;1.80;99.90;;;1.48;nan;101958.13;4913373;29;20226;-66
2023/01/29 06:16:14;;;;;;;5.50;3.70;;;1.80;99.90;;;1.44;nan;101959.03;4880682;29;20214;-66
2023/01/29 06:18:42;;;;;;;3.55;2.75;;;1.80;99.90;;;1.44;nan;101963.31;4880067;29;20669;-66
2023/01/29 06:21:12;;;;;;;6.78;3.80;;;1.80;99.90;;;1.46;nan;101965.03;4886221;29;20230;-66
2023/01/29 06:23:39;;;;;;;5.07;3.40;;;1.80;99.90;;;1.47;nan;101963.28;4894944;29;20245;-66
2023/01/29 06:26:10;;;;;;;4.35;2.95;;;1.80;99.90;;;1.49;nan;101954.66;4893932;29;20249;-65
2023/01/29 06:28:38;;;;;;;4.80;2.97;;;1.80;99.90;;;1.52;nan;101954.63;4897906;29;20211;-66
2023/01/29 06:31:06;;;;;;;6.00;3.03;;;1.80;99.90;;;1.52;nan;101951.22;4910599;29;20596;-66
2023/01/29 06:33:53;;;;;;;3.75;2.85;;;1.90;99.90;;;1.52;nan;101957.22;4899753;29;20210;-66
2023/01/29 06:36:20;;;;;;;9.23;5.03;;;1.80;99.90;;;1.52;nan;101946.06;4897518;29;20218;-66
2023/01/29 06:38:47;;;;;;;5.32;3.70;;;1.80;99.90;;;1.51;nan;101947.78;4898597;29;20210;-67
2023/01/29 06:41:17;;;;;;;4.80;2.80;;;1.80;99.90;;;1.51;nan;101949.53;4897696;29;20290;-66
2023/01/29 06:43:45;;;;;;;1.95;1.80;;;1.90;99.90;;;1.51;nan;101949.53;4903791;29;20234;-65
2023/01/29 06:46:13;;;;;;;1.85;1.70;;;1.80;99.90;;;1.46;nan;101944.44;4897379;29;20206;-66
2023/01/29 06:48:39;;;;;;;1.80;1.55;;;1.80;99.90;;;1.42;nan;101941.94;4900845;29;20229;-66
2023/01/29 06:51:08;;;;;;;2.22;1.55;;;1.80;99.90;;;1.36;nan;101935.13;4897597;29;20230;-66
2023/01/29 06:53:37;;;;;;;2.42;1.25;;;1.70;99.90;;;1.36;nan;101944.59;4897145;29;20261;-65
2023/01/29 06:56:05;;;;;;;1.10;1.00;;;1.70;99.90;;;1.38;nan;101953.13;4897681;29;20211;-65
2023/01/29 06:58:32;;;;;;;4.70;3.55;;;1.70;99.90;;;1.38;nan;101948.84;4896955;29;20211;-65
2023/01/29 07:01:09;;;;;;;4.88;3.35;;;1.70;99.90;;;1.39;nan;101950.53;4877459;29;20592;-65
2023/01/29 07:03:36;;;;;;;4.50;2.85;;;1.70;99.90;;;1.42;nan;101958.22;4873794;29;20242;-66
2023/01/29 07:06:04;;;;;;;2.85;2.60;;;1.70;99.90;;;1.45;nan;101958.16;4884807;29;20241;-66
2023/01/29 07:08:38;;;;;;;4.55;3.50;;;1.80;99.90;;;1.45;nan;101960.72;4895755;29;20215;-65
2023/01/29 07:11:06;;;;;;;6.55;3.90;;;1.80;99.90;;;1.48;nan;101957.28;4877982;29;20231;-66
2023/01/29 07:13:33;;;;;;;4.35;3.10;;;1.80;99.90;;;1.49;nan;101951.28;4896360;29;20278;-67
2023/01/29 07:16:02;;;;;;;3.20;2.90;;;1.80;99.90;;;1.51;nan;101954.66;4897611;29;20254;-67
2023/01/29 07:18:30;;;;;;;2.55;2.35;;;1.80;99.90;;;1.50;nan;101953.81;4887140;29;20631;-66
2023/01/29 07:20:57;;;;;;;3.45;2.67;;;1.80;99.90;;;1.53;nan;101958.91;4905217;29;20229;-67
2023/01/29 07:23:24;;;;;;;2.78;2.58;;;1.90;99.90;;;1.53;nan;101956.31;4906420;29;20286;-65
2023/01/29 07:25:51;;;;;;;1.40;1.33;;;1.80;99.90;;;1.54;nan;101947.75;4897198;29;20211;-66
2023/01/29 07:28:22;;;;;;;2.92;1.48;;;1.90;99.90;;;1.54;nan;101954.59;4899657;29;20244;-66
2023/01/29 07:30:49;;;;;;;1.52;1.23;;;1.90;99.90;;;1.52;nan;101952.06;4914141;29;20218;-66
2023/01/29 07:33:16;;;;;;;2.67;2.42;;;1.90;99.90;;;1.53;nan;101953.75;4909921;29;20213;-66
2023/01/29 07:35:43;;;;;;;4.80;3.20;;;1.90;99.90;;;1.54;nan;101955.47;4880852;29;20218;-67
2023/01/29 07:38:10;;;;;;;10.23;4.72;;;1.80;99.90;;;1.55;nan;101959.72;4904490;29;20197;-66
2023/01/29 07:40:37;;;;;;;12.48;5.93;;;1.90;99.90;;;1.61;nan;101965.66;4913521;29;20748;-65
2023/01/29 07:43:06;;;;;;;4.15;3.33;;;1.90;99.90;;;1.60;nan;101969.13;4904329;29;20234;-65
2023/01/29 07:45:35;;;;;;;5.13;3.45;;;1.90;99.90;;;1.60;nan;101975.09;4896130;29;20207;-66
2023/01/29 07:48:05;;;;;;;6.45;4.20;;;1.90;99.90;;;1.58;nan;101978.59;4894635;29;20233;-65
2023/01/29 07:50:33;;;;;;;5.22;3.65;;;1.90;99.90;;;1.58;nan;101981.16;4898948;29;20783;-65
2023/01/29 07:53:01;;;;;;;4.55;3.63;;;1.90;99.90;;;1.60;nan;101977.66;4895347;29;20594;-67
2023/01/29 07:55:28;;;;;;;6.75;3.75;;;1.90;99.90;;;1.57;nan;101977.72;4896000;29;20218;-65
2023/01/29 07:57:57;;;;;;;8.32;4.70;;;1.90;99.90;;;1.56;nan;101983.72;4895946;29;20203;-65
2023/01/29 08:00:24;;;;;;;5.05;2.55;;;1.90;99.90;;;1.55;nan;101985.44;4895896;29;20274;-67
2023/01/29 08:02:51;;;;;;;3.28;2.92;;;1.80;99.90;;;1.54;nan;101978.63;4895723;29;20214;-68
2023/01/29 08:05:19;;;;;;;6.93;3.35;;;1.90;99.90;;;1.58;nan;101984.56;4896482;29;20572;-65
2023/01/29 08:07:52;;;;;;;3.55;3.22;;;1.90;99.90;;;1.65;nan;101987.91;4894187;29;20270;-67
2023/01/29 08:10:33;;;;;;;1.52;1.40;;;2.00;99.90;;;1.75;nan;101987.75;4896412;29;20282;-65
2023/01/29 08:13:01;;;;;;;4.75;3.30;;;2.10;99.90;;;1.81;nan;101992.81;4895339;29;20214;-66
2023/01/29 08:15:29;;;;;;;4.22;3.05;;;2.10;99.90;;;1.93;nan;101997.78;4895891;29;20674;-67
2023/01/29 08:17:56;;;;;;;5.65;3.53;;;2.20;99.90;;;2.12;nan;101993.22;4887145;29;20211;-66
2023/01/29 08:20:24;;;;;;;4.55;3.40;;;2.40;99.90;;;2.27;nan;101992.97;4895482;29;20602;-67
2023/01/29 08:23:00;;;;;;;5.97;3.00;;;2.60;99.90;;;2.41;nan;102003.88;4903439;29;20210;-66
2023/01/29 08:25:27;;;;;;;3.22;2.17;;;2.70;99.90;;;2.52;nan;101996.81;4894272;29;20265;-66
2023/01/29 08:27:56;;;;;;;2.15;1.95;;;2.80;99.90;;;2.60;nan;101988.97;4893321;29;20211;-66
2023/01/29 08:30:29;;;;;;;3.00;1.85;;;2.80;99.90;;;2.66;nan;101992.25;4887149;29;20226;-66
2023/01/29 08:32:57;;;;;;;2.53;1.92;;;2.90;99.90;;;2.75;nan;101999.84;4888794;29;20217;-66
2023/01/29 08:35:24;;;;;;;3.80;1.70;;;3.10;99.90;;;2.89;nan;101995.28;4894804;29;20211;-66
2023/01/29 08:38:00;;;;;;;5.60;3.97;;;3.10;99.90;;;3.12;nan;101987.97;4895014;29;20214;-66
2023/01/29 08:40:33;;;;;;;6.32;3.33;;;3.30;99.90;;;3.36;nan;101988.34;4875803;29;20292;-68
2023/01/29 08:43:05;;;;;;;3.55;2.97;;;3.60;99.90;;;3.51;nan;101993.19;4895941;29;20210;-68
2023/01/29 08:45:38;;;;;;;5.32;4.15;;;3.80;99.90;;;3.62;nan;102006.72;4887969;29;20676;-70
2023/01/29 08:48:05;;;;;;;7.65;4.95;;;3.90;99.90;;;3.66;nan;102010.91;4893616;29;20690;-68
2023/01/29 08:50:33;;;;;;;5.70;3.78;;;4.00;99.90;;;3.81;nan;102014.00;4907060;29;20310;-70
2023/01/29 08:53:06;;;;;;;4.18;3.30;;;4.10;99.90;;;4.01;nan;102012.69;4910057;29;20214;-69
2023/01/29 08:55:36;;;;;;;5.72;3.35;;;4.20;99.90;;;4.19;nan;102000.22;4894408;29;20683;-68
2023/01/29 08:58:09;;;;;;;2.15;2.05;;;4.50;99.90;;;4.42;nan;101982.41;4884478;29;20203;-70
2023/01/29 09:00:37;;;;;;;2.83;2.10;;;4.70;99.90;;;4.50;nan;101964.09;4895399;29;20306;-67
2023/01/29 09:03:06;;;;;;;3.08;1.40;;;4.80;99.90;;;4.43;nan;101939.34;4901799;29;20229;-68
2023/01/29 09:05:34;;;;;;;2.05;1.92;;;4.70;99.90;;;5.11;nan;101929.69;4898107;29;20210;-70
2023/01/29 09:08:01;;;;;;;3.50;3.20;;;5.30;99.90;;;6.93;nan;101938.38;4902580;29;20210;-70
2023/01/29 09:10:28;;;;;;;5.37;3.20;;;6.90;99.90;;;9.31;nan;101948.41;4897551;29;20655;-68
2023/01/29 09:12:55;;;;;;;6.70;4.10;;;9.30;98.00;;;11.84;nan;101951.94;4894782;29;20706;-68
2023/01/29 09:15:23;;;;;;;7.00;5.00;;;11.80;90.20;;;13.99;nan;101948.28;4898815;29;20658;-66
2023/01/29 09:17:51;;;;;;;5.80;4.10;;;14.10;76.60;;;14.78;nan;101943.78;4908917;29;20677;-68
2023/01/29 09:20:18;;;;;;;8.83;4.60;;;15.30;67.80;;;15.17;nan;101941.03;4899334;29;20677;-68
2023/01/29 09:22:46;;;;;;;6.87;4.43;;;15.70;64.40;;;14.40;nan;101958.69;4916915;29;20634;-71
2023/01/29 09:25:13;;;;;;;11.47;7.20;;;15.50;60.90;;;13.50;nan;101968.94;4881002;29;20683;-68
2023/01/29 09:27:41;;;;;;;8.50;5.60;;;14.50;62.90;;;12.45;nan;101968.41;4899886;29;21218;-68
2023/01/29 09:30:08;;;;;;;6.17;4.07;;;13.40;64.30;;;11.57;nan;101973.44;4905897;29;20642;-68
2023/01/29 09:32:35;;;;;;;10.23;6.67;;;12.40;65.20;;;10.61;nan;101965.53;4899837;29;20642;-67
2023/01/29 09:35:21;;;;;;;10.37;5.70;;;11.40;66.40;;;9.50;nan;101969.28;4894672;29;21210;-65
2023/01/29 09:37:49;;;;;;;9.90;5.60;;;10.40;69.50;;;8.84;nan;101965.34;4898084;29;20642;-67
2023/01/29 09:41:18;;;;;;;8.87;5.30;;;9.60;72.10;;;8.18;nan;101971.56;4897792;29;20690;-65
2023/01/29 09:43:52;;;;;;;8.50;5.80;;;8.90;73.90;;;7.62;nan;101986.84;4858431;29;20671;-67
2023/01/29 09:46:27;;;;;;;8.00;5.57;;;8.20;76.10;;;7.08;nan;101989.72;4878114;29;21061;-65
2023/01/29 09:49:07;;;;;;;7.40;5.13;;;7.70;78.20;;;6.55;nan;101982.97;4884823;29;20643;-69
2023/01/29 09:51:41;;;;;;;3.90;3.53;;;7.10;80.90;;;6.09;nan;101991.44;4891233;29;20654;-67
2023/01/29 09:54:25;;;;;;;11.43;6.63;;;6.60;83.50;;;5.54;nan;101984.44;4880257;29;20639;-65
2023/01/29 09:56:55;;;;;;;9.10;6.33;;;6.00;87.60;;;5.00;nan;101991.22;4898715;29;20630;-67
2023/01/29 09:59:29;;;;;;;5.50;4.17;;;5.50;91.10;;;4.66;nan;102005.03;4897015;29;20647;-69
2023/01/29 10:02:21;;;;;;;5.72;4.00;;;5.10;93.10;;;4.43;nan;102007.34;4882260;29;20646;-67
2023/01/29 10:05:05;;;;;;;7.70;4.73;;;4.90;94.70;;;4.25;nan;102012.13;4881424;29;20230;-67
2023/01/29 10:07:51;;;;;;;4.93;3.47;;;4.60;96.20;;;4.17;nan;102017.50;4881715;29;21159;-69
2023/01/29 10:10:49;;;;;;;4.15;3.33;;;4.50;97.70;;;4.16;nan;102015.78;4896991;29;20312;-69
2023/01/29 10:13:39;;;;;;;8.05;5.07;;;4.40;98.60;;;4.06;nan;102011.72;4881478;29;20219;-68
2023/01/29 10:16:33;;;;;;;5.63;3.70;;;4.40;99.30;;;3.93;nan;102006.00;4894532;29;20211;-67
2023/01/29 10:19:10;;;;;;;6.47;4.63;;;4.30;99.90;;;3.76;nan;102002.94;4902378;29;20219;-66
2023/01/29 10:22:03;;;;;;;4.40;3.72;;;4.10;99.90;;;3.61;nan;101994.66;4878444;29;20783;-68
2023/01/29 10:24:37;;;;;;;4.85;3.60;;;4.00;99.90;;;3.49;nan;102000.09;4882000;29;20229;-68
2023/01/29 10:27:18;;;;;;;6.63;4.40;;;3.80;99.90;;;3.39;nan;102008.91;4889943;29;20205;-66
2023/01/29 10:29:49;;;;;;;5.10;3.55;;;3.70;99.90;;;3.33;nan;101989.25;4901786;29;20202;-67
2023/01/29 10:32:24;;;;;;;7.85;3.40;;;3.70;99.90;;;3.33;nan;101972.91;4912960;29;20230;-68
2023/01/29 10:35:11;;;;;;;4.45;2.95;;;3.60;99.90;;;3.26;nan;101977.34;4901233;29;20264;-70
2023/01/29 10:37:41;;;;;;;4.57;4.18;;;3.50;99.90;;;3.24;nan;101968.78;4874318;29;20806;-68
2023/01/29 10:40:28;;;;;;;2.97;2.67;;;3.60;99.90;;;3.19;nan;101962.03;4892847;29;20218;-68
2023/01/29 10:43:17;;;;;;;3.58;2.95;;;3.50;99.90;;;3.22;nan;101962.81;4899628;29;20206;-67
2023/01/29 10:46:00;;;;;;;4.05;3.63;;;3.50;99.90;;;3.10;nan;101963.94;4880065;29;20230;-67
2023/01/29 10:49:23;;;;;;;5.75;4.10;;;3.40;99.90;;;3.07;nan;101966.56;4895724;29;20816;-69
2023/01/29 10:52:21;;;;;;;2.35;2.20;;;3.40;99.90;;;3.12;nan;101966.47;4898323;29;20265;-68
2023/01/29 10:54:55;;;;;;;3.33;2.92;;;3.40;99.90;;;3.17;nan;101956.06;4909755;29;20672;-67
2023/01/29 10:58:14;;;;;;;3.47;3.10;;;3.40;99.90;;;3.26;nan;101946.41;4902087;29;20579;-69
2023/01/29 11:00:41;;;;;;;2.50;2.30;;;3.50;99.90;;;3.35;nan;101942.78;4898042;29;20234;-67
2023/01/29 11:03:25;;;;;;;2.10;1.60;;;3.60;99.90;;;3.45;nan;101936.56;4896202;29;20215;-68
2023/01/29 11:06:04;;;;;;;3.08;1.75;;;3.70;99.90;;;3.57;nan;101928.53;4901430;29;20234;-68
2023/01/29 11:08:41;;;;;;;2.83;2.63;;;3.80;99.90;;;3.71;nan;101929.91;4890259;29;20672;-69
2023/01/29 11:11:17;;;;;;;3.25;3.05;;;3.90;99.90;;;3.77;nan;101929.75;4879646;29;20701;-69
2023/01/29 11:14:27;;;;;;;3.80;3.50;;;4.10;99.90;;;3.81;nan;101922.81;4887239;29;20206;-68
2023/01/29 11:16:54;;;;;;;3.92;3.10;;;4.10;99.90;;;3.76;nan;101912.59;4876417;29;20208;-70
2023/01/29 11:19:41;;;;;;;5.97;3.90;;;4.10;99.90;;;3.73;nan;101912.66;4877554;29;20215;-67
2023/01/29 11:22:21;;;;;;;3.80;3.35;;;4.00;99.90;;;3.59;nan;101911.28;4887296;29;20222;-70
2023/01/29 11:25:19;;;;;;;3.30;3.00;;;3.90;99.90;;;3.51;nan;101915.75;4880107;29;20227;-68
2023/01/29 11:27:57;;;;;;;3.88;3.45;;;3.80;99.90;;;3.54;nan;101903.63;4896151;29;20221;-68
2023/01/29 11:30:36;;;;;;;3.88;3.45;;;3.80;99.90;;;3.69;nan;101899.84;4876476;29;20223;-66
2023/01/29 11:33:21;;;;;;;4.70;3.60;;;3.90;99.90;;;3.84;nan;101895.16;4877559;29;20217;-67
2023/01/29 11:35:48;;;;;;;4.10;2.75;;;4.10;99.90;;;4.07;nan;101892.00;4893796;29;20211;-68